createdAt,value
2022-11-18T00:01:59.021Z,9.48
2022-11-18T00:04:26.606Z,9.32
2022-11-18T00:06:54.188Z,9.30
2022-11-18T00:09:22.046Z,9.31
2022-11-18T00:12:07.376Z,9.13
2022-11-18T00:14:36.298Z,9.00
2022-11-18T00:17:06.118Z,8.98
2022-11-18T00:19:35.773Z,8.96
2022-11-18T00:22:04.167Z,9.09
2022-11-18T00:24:32.185Z,9.23
2022-11-18T00:26:59.755Z,9.12
2022-11-18T00:29:28.357Z,9.59
2022-11-18T00:31:57.990Z,9.49
2022-11-18T00:34:26.220Z,9.45
2022-11-18T00:36:53.803Z,9.67
2022-11-18T00:39:22.093Z,9.71
2022-11-18T00:42:07.733Z,9.90
2022-11-18T00:44:35.654Z,10.19
2022-11-18T00:47:04.563Z,10.23
2022-11-18T00:49:32.320Z,10.41
2022-11-18T00:51:59.869Z,10.51
2022-11-18T00:54:27.417Z,10.43
2022-11-18T00:56:55.018Z,10.42
2022-11-18T00:59:22.553Z,10.29
2022-11-18T01:01:50.232Z,9.71
2022-11-18T01:04:19.228Z,9.35
2022-11-18T01:06:46.749Z,9.16
2022-11-18T01:09:14.446Z,9.06
2022-11-18T01:11:59.867Z,9.20
2022-11-18T01:14:27.735Z,9.29
2022-11-18T01:16:56.119Z,9.68
2022-11-18T01:19:25.836Z,9.76
2022-11-18T01:21:53.430Z,9.53
2022-11-18T01:24:20.977Z,9.46
2022-11-18T01:26:48.659Z,9.10
2022-11-18T01:29:16.561Z,9.00
2022-11-18T01:32:08.749Z,8.93
2022-11-18T01:34:33.172Z,8.85
2022-11-18T01:37:00.721Z,9.20
2022-11-18T01:39:28.302Z,9.21
2022-11-18T01:41:55.845Z,9.53
2022-11-18T01:44:57.652Z,9.28
2022-11-18T01:47:26.825Z,9.24
2022-11-18T01:49:55.915Z,9.04
2022-11-18T01:52:24.377Z,8.95
2022-11-18T01:54:56.726Z,9.12
2022-11-18T01:57:27.526Z,9.28
2022-11-18T01:59:58.397Z,9.32
2022-11-18T02:02:25.953Z,9.50
2022-11-18T02:04:57.513Z,9.96
2022-11-18T02:07:26.343Z,9.89
2022-11-18T02:09:55.530Z,10.20
2022-11-18T02:12:23.233Z,10.72
2022-11-18T02:14:52.544Z,10.66
2022-11-18T02:17:32.959Z,10.25
2022-11-18T02:20:23.744Z,10.19
2022-11-18T02:23:21.964Z,9.91
2022-11-18T02:26:06.076Z,9.87
2022-11-18T02:28:39.056Z,9.81
2022-11-18T02:31:15.814Z,9.76
2022-11-18T02:33:52.702Z,9.60
2022-11-18T02:36:27.843Z,9.22
2022-11-18T02:39:00.243Z,9.31
2022-11-18T02:41:31.101Z,9.28
2022-11-18T02:44:04.699Z,8.98
2022-11-18T02:46:36.832Z,8.80
2022-11-18T02:49:09.371Z,9.06
2022-11-18T02:51:37.817Z,9.09
2022-11-18T02:54:08.780Z,9.24
2022-11-18T02:56:37.362Z,9.23
2022-11-18T02:59:05.869Z,9.58
2022-11-18T03:01:36.686Z,9.72
2022-11-18T03:04:04.673Z,10.15
2022-11-18T03:06:36.970Z,10.00
2022-11-18T03:09:15.254Z,10.14
2022-11-18T03:11:53.792Z,10.16
2022-11-18T03:14:27.052Z,10.07
2022-11-18T03:17:01.170Z,10.13
2022-11-18T03:19:41.597Z,10.37
2022-11-18T03:22:17.197Z,10.53
2022-11-18T03:24:53.506Z,10.44
2022-11-18T03:27:25.695Z,9.96
2022-11-18T03:29:58.407Z,10.13
2022-11-18T03:32:30.327Z,10.13
2022-11-18T03:35:03.020Z,10.22
2022-11-18T03:37:34.372Z,10.19
2022-11-18T03:40:07.147Z,10.31
2022-11-18T03:42:39.691Z,10.32
2022-11-18T03:45:13.499Z,10.39
2022-11-18T03:47:45.918Z,10.17
2022-11-18T03:50:18.443Z,10.26
2022-11-18T03:52:48.320Z,10.19
2022-11-18T03:55:20.704Z,10.34
2022-11-18T03:57:56.814Z,10.46
2022-11-18T04:00:26.117Z,10.30
2022-11-18T04:02:55.091Z,10.26
2022-11-18T04:05:22.872Z,10.40
2022-11-18T04:07:57.161Z,10.52
2022-11-18T04:10:29.029Z,10.45
2022-11-18T04:13:06.114Z,10.59
2022-11-18T04:15:34.711Z,10.58
2022-11-18T04:18:03.593Z,10.53
2022-11-18T04:20:32.396Z,10.30
2022-11-18T04:23:00.129Z,10.33
2022-11-18T04:25:28.132Z,10.26
2022-11-18T04:27:55.687Z,10.25
2022-11-18T04:30:23.276Z,10.46
2022-11-18T04:32:51.055Z,10.54
2022-11-18T04:35:19.955Z,10.55
2022-11-18T04:37:47.594Z,10.54
2022-11-18T04:40:15.192Z,10.48
2022-11-18T04:42:42.965Z,10.44
2022-11-18T04:45:11.778Z,10.36
2022-11-18T04:47:39.393Z,10.28
2022-11-18T04:50:07.566Z,10.26
2022-11-18T04:52:36.464Z,10.16
2022-11-18T04:55:04.172Z,10.20
2022-11-18T04:57:31.710Z,10.00
2022-11-18T04:59:59.248Z,9.94
2022-11-18T05:02:26.826Z,9.99
2022-11-18T05:04:54.385Z,10.01
2022-11-18T05:07:21.958Z,10.22
2022-11-18T05:09:50.902Z,10.45
2022-11-18T05:12:36.097Z,10.62
2022-11-18T05:15:03.593Z,10.72
2022-11-18T05:17:31.117Z,10.51
2022-11-18T05:19:58.646Z,10.37
2022-11-18T05:22:26.203Z,10.19
2022-11-18T05:24:55.052Z,10.07
2022-11-18T05:27:22.592Z,10.46
2022-11-18T05:29:50.112Z,10.71
2022-11-18T05:32:17.634Z,10.90
2022-11-18T05:34:45.195Z,10.85
2022-11-18T05:37:12.914Z,10.97
2022-11-18T05:39:40.573Z,10.63
2022-11-18T05:42:32.163Z,10.87
2022-11-18T05:44:59.682Z,11.08
2022-11-18T05:47:27.831Z,11.17
2022-11-18T05:49:55.387Z,11.16
2022-11-18T05:52:22.889Z,11.10
2022-11-18T05:54:51.964Z,10.82
2022-11-18T05:57:20.854Z,10.65
2022-11-18T05:59:48.398Z,10.69
2022-11-18T06:02:21.019Z,10.42
2022-11-18T06:04:52.096Z,10.85
2022-11-18T06:07:23.373Z,10.95
2022-11-18T06:09:54.939Z,10.85
2022-11-18T06:12:29.237Z,10.69
2022-11-18T06:15:01.094Z,10.82
2022-11-18T06:17:32.350Z,10.86
2022-11-18T06:20:00.605Z,10.79
2022-11-18T06:22:28.163Z,10.86
2022-11-18T06:24:55.979Z,10.83
2022-11-18T06:27:25.017Z,10.84
2022-11-18T06:29:52.544Z,10.91
2022-11-18T06:32:20.066Z,10.78
2022-11-18T06:34:47.629Z,10.73
2022-11-18T06:37:16.367Z,10.79
2022-11-18T06:39:43.897Z,10.59
2022-11-18T06:42:11.769Z,10.60
2022-11-18T06:44:39.767Z,10.83
2022-11-18T06:47:07.309Z,10.71
2022-11-18T06:49:34.804Z,10.73
2022-11-18T06:52:02.336Z,10.39
2022-11-18T06:54:29.852Z,10.63
2022-11-18T06:56:57.412Z,10.52
2022-11-18T06:59:24.938Z,10.88
2022-11-18T07:01:54.071Z,10.88
2022-11-18T07:04:22.640Z,10.88
2022-11-18T07:06:50.294Z,10.80
2022-11-18T07:09:18.203Z,10.01
2022-11-18T07:11:45.818Z,9.96
2022-11-18T07:14:14.464Z,9.57
2022-11-18T07:16:41.989Z,9.66
2022-11-18T07:19:12.809Z,9.74
2022-11-18T07:21:41.391Z,9.42
2022-11-18T07:24:09.750Z,9.82
2022-11-18T07:26:37.657Z,10.02
2022-11-18T07:29:05.233Z,10.24
2022-11-18T07:31:33.851Z,9.89
2022-11-18T07:34:01.615Z,9.93
2022-11-18T07:36:35.666Z,9.39
2022-11-18T07:39:05.263Z,9.00
2022-11-18T07:41:33.412Z,8.49
2022-11-18T07:44:02.518Z,8.55
2022-11-18T07:46:31.578Z,8.37
2022-11-18T07:49:00.547Z,8.16
2022-11-18T07:51:31.032Z,8.32
2022-11-18T07:53:58.982Z,8.74
2022-11-18T07:56:26.544Z,9.31
2022-11-18T07:58:54.889Z,9.68
2022-11-18T08:01:24.481Z,9.84
2022-11-18T08:03:52.526Z,9.86
2022-11-18T08:06:21.055Z,9.87
2022-11-18T08:08:50.414Z,9.66
2022-11-18T08:11:22.719Z,9.38
2022-11-18T08:13:50.695Z,9.38
2022-11-18T08:16:20.430Z,9.37
2022-11-18T08:18:48.307Z,9.56
2022-11-18T08:21:17.514Z,9.74
2022-11-18T08:23:49.825Z,10.06
2022-11-18T08:26:18.891Z,9.84
2022-11-18T08:28:47.237Z,10.08
2022-11-18T08:31:17.698Z,10.28
2022-11-18T08:33:45.390Z,10.06
2022-11-18T08:36:16.377Z,9.85
2022-11-18T08:38:44.397Z,10.41
2022-11-18T08:41:13.397Z,10.62
2022-11-18T08:43:42.560Z,10.60
2022-11-18T08:46:10.167Z,9.73
2022-11-18T08:48:37.899Z,9.19
2022-11-18T08:51:05.818Z,9.11
2022-11-18T08:53:33.527Z,8.56
2022-11-18T08:56:02.196Z,8.57
2022-11-18T08:58:29.898Z,8.33
2022-11-18T09:00:58.773Z,8.02
2022-11-18T09:03:26.504Z,7.92
2022-11-18T09:05:54.048Z,7.83
2022-11-18T09:08:21.900Z,7.86
2022-11-18T09:10:49.433Z,7.82
2022-11-18T09:13:43.451Z,8.03
2022-11-18T09:16:08.456Z,8.03
2022-11-18T09:18:36.670Z,8.06
2022-11-18T09:21:06.525Z,8.08
2022-11-18T09:23:35.873Z,8.12
2022-11-18T09:26:05.774Z,7.99
2022-11-18T09:28:33.656Z,8.11
2022-11-18T09:31:03.855Z,8.02
2022-11-18T09:33:33.011Z,7.98
2022-11-18T09:36:00.506Z,8.01
2022-11-18T09:38:29.918Z,8.07
2022-11-18T09:41:05.922Z,8.02
2022-11-18T09:43:43.997Z,7.80
2022-11-18T09:46:22.915Z,7.68
2022-11-18T09:49:09.662Z,7.92
2022-11-18T09:51:41.339Z,7.83
2022-11-18T09:54:13.095Z,7.94
2022-11-18T09:56:41.543Z,7.74
2022-11-18T09:59:14.876Z,7.82
2022-11-18T10:01:43.504Z,7.81
2022-11-18T10:04:17.211Z,7.64
2022-11-18T10:06:45.634Z,7.53
2022-11-18T10:09:28.246Z,7.44
2022-11-18T10:12:26.608Z,7.40
2022-11-18T10:15:09.909Z,7.42
2022-11-18T10:17:47.811Z,7.44
2022-11-18T10:20:26.031Z,7.46
2022-11-18T10:22:57.376Z,7.44
2022-11-18T10:25:25.387Z,7.59
2022-11-18T10:27:52.989Z,7.65
2022-11-18T10:30:22.614Z,7.93
2022-11-18T10:32:58.142Z,7.50
2022-11-18T10:35:30.329Z,7.47
2022-11-18T10:38:08.127Z,7.69
2022-11-18T10:40:46.562Z,7.85
2022-11-18T10:43:34.295Z,7.45
2022-11-18T10:46:17.378Z,7.12
2022-11-18T10:48:44.876Z,7.02
2022-11-18T10:51:24.996Z,7.03
2022-11-18T10:53:52.515Z,6.97
2022-11-18T10:56:20.017Z,7.13
2022-11-18T10:58:50.786Z,7.09
2022-11-18T11:01:23.821Z,7.09
2022-11-18T11:04:00.015Z,7.10
2022-11-18T11:06:34.760Z,7.09
2022-11-18T11:09:08.028Z,7.07
2022-11-18T11:11:39.868Z,7.10
2022-11-18T11:14:20.352Z,7.10
2022-11-18T11:16:57.480Z,6.98
2022-11-18T11:19:28.960Z,7.08
2022-11-18T11:21:58.254Z,7.14
2022-11-18T11:24:28.203Z,7.09
2022-11-18T11:30:13.257Z,6.99
2022-11-18T11:33:06.864Z,6.88
2022-11-18T11:35:42.125Z,6.90
2022-11-18T11:38:19.003Z,6.92
2022-11-18T11:40:59.407Z,6.93
2022-11-18T11:43:36.192Z,6.89
2022-11-18T11:46:18.345Z,6.97
2022-11-18T11:48:58.281Z,7.03
2022-11-18T11:51:32.484Z,7.03
2022-11-18T11:54:17.270Z,7.01
2022-11-18T11:56:50.005Z,7.11
2022-11-18T11:59:27.010Z,6.95
2022-11-18T12:02:08.378Z,6.96
2022-11-18T12:04:43.543Z,6.93
2022-11-18T12:07:17.349Z,7.08
2022-11-18T12:10:01.811Z,7.09
2022-11-18T12:12:35.225Z,7.00
2022-11-18T12:15:20.730Z,7.04
2022-11-18T12:17:57.809Z,7.13
2022-11-18T12:20:40.247Z,7.14
2022-11-18T12:23:13.191Z,7.15
2022-11-18T12:26:09.432Z,7.16
2022-11-18T12:28:41.121Z,7.20
2022-11-18T12:31:34.467Z,7.01
2022-11-18T12:34:28.782Z,7.11
2022-11-18T12:36:56.960Z,6.98
2022-11-18T12:40:01.043Z,7.27
2022-11-18T12:43:01.883Z,7.26
2022-11-18T12:45:55.158Z,7.36
2022-11-18T12:48:38.407Z,7.21
2022-11-18T12:51:47.635Z,7.16
2022-11-18T12:54:31.163Z,7.34
2022-11-18T12:57:01.378Z,7.29
2022-11-18T12:59:35.963Z,7.31
2022-11-18T13:02:17.933Z,7.36
2022-11-18T13:04:49.663Z,7.43
2022-11-18T13:07:37.841Z,7.39
2022-11-18T13:10:20.120Z,7.58
2022-11-18T13:12:47.667Z,7.52
2022-11-18T13:15:34.266Z,7.51
2022-11-18T13:18:13.137Z,7.44
2022-11-18T13:20:42.239Z,7.48
2022-11-18T13:23:44.879Z,7.21
2022-11-18T13:26:20.122Z,7.26
2022-11-18T13:29:02.773Z,7.28
2022-11-18T13:31:39.605Z,7.37
2022-11-18T13:34:17.580Z,7.43
2022-11-18T13:36:46.752Z,7.51
2022-11-18T13:39:21.602Z,7.73
2022-11-18T13:41:59.844Z,7.66
2022-11-18T13:44:29.006Z,7.61
2022-11-18T13:47:04.712Z,7.65
2022-11-18T13:49:50.501Z,7.61
2022-11-18T13:52:22.969Z,7.43
2022-11-18T13:54:52.442Z,7.40
2022-11-18T13:57:23.572Z,7.58
2022-11-18T13:59:54.862Z,7.43
2022-11-18T14:02:24.217Z,7.37
2022-11-18T14:04:57.472Z,7.31
2022-11-18T14:07:33.991Z,7.30
2022-11-18T14:10:05.370Z,7.39
2022-11-18T14:12:34.346Z,7.39
2022-11-18T14:15:22.494Z,7.35
2022-11-18T14:17:56.893Z,7.39
2022-11-18T14:20:25.683Z,7.45
2022-11-18T14:22:56.835Z,7.45
2022-11-18T14:25:29.063Z,7.49
2022-11-18T14:27:57.855Z,7.62
2022-11-18T14:30:31.587Z,7.40
2022-11-18T14:33:22.094Z,7.45
2022-11-18T14:35:51.925Z,7.42
2022-11-18T14:38:37.012Z,7.43
2022-11-18T14:41:10.070Z,7.60
2022-11-18T14:43:37.702Z,7.41
2022-11-18T14:46:08.246Z,7.42
2022-11-18T14:48:37.087Z,7.51
2022-11-18T14:51:04.765Z,7.44
2022-11-18T14:53:32.275Z,7.36
2022-11-18T14:56:01.239Z,7.33
2022-11-18T14:58:28.755Z,7.29
2022-11-18T15:00:56.334Z,7.38
2022-11-18T15:03:24.125Z,7.41
2022-11-18T15:05:53.074Z,7.50
2022-11-18T15:08:20.581Z,7.39
2022-11-18T15:10:48.194Z,7.58
2022-11-18T15:13:15.713Z,7.52
2022-11-18T15:15:43.259Z,7.44
2022-11-18T15:18:10.772Z,7.37
2022-11-18T15:20:38.331Z,7.41
2022-11-18T15:23:07.220Z,7.56
2022-11-18T15:25:34.767Z,7.75
2022-11-18T15:28:02.361Z,7.50
2022-11-18T15:30:29.885Z,7.37
2022-11-18T15:32:57.415Z,7.51
2022-11-18T15:35:25.768Z,7.51
2022-11-18T15:37:53.919Z,7.44
2022-11-18T15:40:22.837Z,7.51
2022-11-18T15:42:52.213Z,7.44
2022-11-18T15:45:20.193Z,7.57
2022-11-18T15:47:48.065Z,7.44
2022-11-18T15:50:15.847Z,7.33
2022-11-18T15:52:43.377Z,7.38
2022-11-18T15:55:11.228Z,7.39
2022-11-18T15:57:40.105Z,7.48
2022-11-18T16:00:09.169Z,7.41
2022-11-18T16:02:36.703Z,7.57
2022-11-18T16:05:04.477Z,7.38
2022-11-18T16:07:32.037Z,7.59
2022-11-18T16:10:17.192Z,7.58
2022-11-18T16:12:49.060Z,7.57
2022-11-18T16:15:35.716Z,7.84
2022-11-18T16:18:03.892Z,7.56
2022-11-18T16:20:31.607Z,7.75
2022-11-18T16:22:59.446Z,7.52
2022-11-18T16:25:28.089Z,7.49
2022-11-18T16:28:02.126Z,7.53
2022-11-18T16:30:51.000Z,7.70
2022-11-18T16:33:18.671Z,7.34
2022-11-18T16:35:49.551Z,7.38
2022-11-18T16:38:17.076Z,7.32
2022-11-18T16:40:44.594Z,7.40
2022-11-18T16:43:13.551Z,7.43
2022-11-18T16:45:41.070Z,7.46
2022-11-18T16:48:08.588Z,7.36
2022-11-18T16:50:36.090Z,7.38
2022-11-18T16:53:03.621Z,7.48
2022-11-18T16:55:31.149Z,7.49
2022-11-18T16:57:58.662Z,7.49
2022-11-18T17:00:51.383Z,7.57
2022-11-18T17:03:15.098Z,7.57
2022-11-18T17:05:42.616Z,7.52
2022-11-18T17:08:10.119Z,7.47
2022-11-18T17:10:37.656Z,7.52
2022-11-18T17:13:05.211Z,7.34
2022-11-18T17:15:36.490Z,7.44
2022-11-18T17:18:04.087Z,7.43
2022-11-18T17:20:31.685Z,7.46
2022-11-18T17:22:59.208Z,7.60
2022-11-18T17:25:26.863Z,7.60
2022-11-18T17:27:54.440Z,7.38
2022-11-18T17:30:22.199Z,7.36
2022-11-18T17:32:51.077Z,7.53
2022-11-18T17:35:18.616Z,7.81
2022-11-18T17:37:46.152Z,7.72
2022-11-18T17:40:14.271Z,7.53
2022-11-18T17:42:41.805Z,7.31
2022-11-18T17:45:10.350Z,7.16
2022-11-18T17:47:37.867Z,7.17
2022-11-18T17:50:07.584Z,7.08
2022-11-18T17:52:36.246Z,7.05
2022-11-18T17:55:03.903Z,7.13
2022-11-18T17:57:31.446Z,7.17
2022-11-18T17:59:59.077Z,7.08
2022-11-18T18:02:26.640Z,6.94
2022-11-18T18:04:55.071Z,6.90
2022-11-18T18:07:23.975Z,7.06
2022-11-18T18:09:51.543Z,7.36
2022-11-18T18:12:36.907Z,7.16
2022-11-18T18:15:04.911Z,6.77
2022-11-18T18:17:32.474Z,6.69
2022-11-18T18:19:59.996Z,6.83
2022-11-18T18:22:28.880Z,6.78
2022-11-18T18:24:56.510Z,6.86
2022-11-18T18:27:24.047Z,6.64
2022-11-18T18:29:52.490Z,6.61
2022-11-18T18:32:20.016Z,6.71
2022-11-18T18:34:47.616Z,6.53
2022-11-18T18:37:15.182Z,6.43
2022-11-18T18:39:44.504Z,6.55
2022-11-18T18:42:12.068Z,6.53
2022-11-18T18:44:57.149Z,6.46
2022-11-18T18:47:24.782Z,6.54
2022-11-18T18:49:52.325Z,6.57
2022-11-18T18:52:20.089Z,6.52
2022-11-18T18:54:49.052Z,6.73
2022-11-18T18:57:16.685Z,6.63
2022-11-18T18:59:44.231Z,6.61
2022-11-18T19:02:12.929Z,6.86
2022-11-18T19:04:40.475Z,6.88
2022-11-18T19:07:08.100Z,6.84
2022-11-18T19:09:36.555Z,6.70
2022-11-18T19:12:23.851Z,6.99
2022-11-18T19:14:51.476Z,7.15
2022-11-18T19:17:19.223Z,7.22
2022-11-18T19:20:04.388Z,6.99
2022-11-18T19:22:33.791Z,6.87
2022-11-18T19:25:02.210Z,7.25
2022-11-18T19:27:31.384Z,7.64
2022-11-18T19:29:59.102Z,7.28
2022-11-18T19:32:26.728Z,7.65
2022-11-18T19:34:54.316Z,7.45
2022-11-18T19:37:21.966Z,7.67
2022-11-18T19:39:49.495Z,7.85
2022-11-18T19:42:17.007Z,7.04
2022-11-18T19:44:45.917Z,7.27
2022-11-18T19:47:13.458Z,6.90
2022-11-18T19:49:40.999Z,6.81
2022-11-18T19:52:08.582Z,7.01
2022-11-18T19:54:36.196Z,7.49
2022-11-18T19:57:03.921Z,7.43
2022-11-18T19:59:31.651Z,7.64
2022-11-18T20:02:00.575Z,7.23
2022-11-18T20:04:28.214Z,7.26
2022-11-18T20:06:56.690Z,7.59
2022-11-18T20:09:25.305Z,8.52
2022-11-18T20:11:53.138Z,8.42
2022-11-18T20:14:20.740Z,7.89
2022-11-18T20:16:48.396Z,7.43
2022-11-18T20:19:17.446Z,7.49
2022-11-18T20:21:47.759Z,6.64
2022-11-18T20:24:17.404Z,7.00
2022-11-18T20:26:45.565Z,7.02
2022-11-18T20:29:13.450Z,7.80
2022-11-18T20:31:41.136Z,7.47
2022-11-18T20:34:09.149Z,7.05
2022-11-18T20:36:38.046Z,6.41
2022-11-18T20:39:07.253Z,6.34
2022-11-18T20:41:36.314Z,6.37
2022-11-18T20:44:04.671Z,6.28
2022-11-18T20:46:33.279Z,6.44
2022-11-18T20:49:00.861Z,6.50
2022-11-18T20:51:29.381Z,6.74
2022-11-18T20:53:59.798Z,6.94
2022-11-18T20:56:28.822Z,6.87
2022-11-18T20:58:57.350Z,6.72
2022-11-18T21:01:27.131Z,7.02
2022-11-18T21:03:56.260Z,7.29
2022-11-18T21:06:25.744Z,7.41
2022-11-18T21:08:56.728Z,7.36
2022-11-18T21:11:26.276Z,6.93
2022-11-18T21:14:11.907Z,6.87
2022-11-18T21:16:40.947Z,6.90
2022-11-18T21:19:08.872Z,7.09
2022-11-18T21:21:44.467Z,6.63
2022-11-18T21:24:13.137Z,6.80
2022-11-18T21:26:43.157Z,6.56
2022-11-18T21:29:13.093Z,6.47
2022-11-18T21:31:41.305Z,6.76
2022-11-18T21:34:09.532Z,6.52
2022-11-18T21:36:43.018Z,6.66
2022-11-18T21:39:13.790Z,6.56
2022-11-18T21:41:42.733Z,6.58
2022-11-18T21:44:11.619Z,6.45
2022-11-18T21:46:40.690Z,6.34
2022-11-18T21:49:09.137Z,6.38
2022-11-18T21:51:37.416Z,6.30
2022-11-18T21:54:05.691Z,6.35
2022-11-18T21:56:33.573Z,6.43
2022-11-18T21:59:03.380Z,6.43
2022-11-18T22:01:33.147Z,6.51
2022-11-18T22:04:02.854Z,6.43
2022-11-18T22:06:33.475Z,6.39
2022-11-18T22:09:02.193Z,6.35
2022-11-18T22:11:29.784Z,6.70
2022-11-18T22:13:57.936Z,6.92
2022-11-18T22:16:29.589Z,7.05
2022-11-18T22:19:01.390Z,6.60
2022-11-18T22:21:31.963Z,6.10
2022-11-18T22:24:00.595Z,5.39
2022-11-18T22:26:29.407Z,4.98
2022-11-18T22:28:58.724Z,5.03
2022-11-18T22:31:29.439Z,5.03
2022-11-18T22:33:57.637Z,4.88
2022-11-18T22:36:27.655Z,4.68
2022-11-18T22:38:56.011Z,4.38
2022-11-18T22:41:57.291Z,4.15
2022-11-18T22:44:24.857Z,4.03
2022-11-18T22:46:53.990Z,3.85
2022-11-18T22:49:21.901Z,3.53
2022-11-18T22:51:49.560Z,3.49
2022-11-18T22:57:04.958Z,3.77
2022-11-18T22:59:32.497Z,3.49
2022-11-18T23:02:01.659Z,3.50
2022-11-18T23:04:29.259Z,3.66
2022-11-18T23:06:56.869Z,3.66
2022-11-18T23:09:24.440Z,3.55
2022-11-18T23:12:09.710Z,3.59
2022-11-18T23:14:37.257Z,3.59
2022-11-18T23:17:06.348Z,3.53
2022-11-18T23:19:33.948Z,3.66
2022-11-18T23:22:01.462Z,3.90
2022-11-18T23:24:29.004Z,3.63
2022-11-18T23:26:56.516Z,3.55
2022-11-18T23:29:24.043Z,3.55
2022-11-18T23:31:52.802Z,3.43
2022-11-18T23:34:21.822Z,3.34
2022-11-18T23:36:49.571Z,3.33
2022-11-18T23:39:17.651Z,3.43
2022-11-18T23:41:45.408Z,3.56
2022-11-18T23:44:12.964Z,3.30
2022-11-18T23:46:40.548Z,3.09
2022-11-18T23:49:09.056Z,3.12
2022-11-18T23:51:37.910Z,3.20
2022-11-18T23:54:05.584Z,3.49
2022-11-18T23:56:37.715Z,3.42
2022-11-18T23:59:06.452Z,3.54
